Latest Weather Observations for Gabo Island

IDV60801

Issued at 10:52 am EDT Thursday 23 January 2020 (issued every 10 minutes, with the page automatically refreshed every 10 minutes)

About weather observations | Map of weather stations | Latest weather observations for VIC | Other Formats
Station Details ID: 084016 Name: GABO ISLAND LIGHTHOUSE Lat: -37.57 Lon: 149.92 Height: 15.0 m
Data from the previous 72 hours. | See also: Recent months at Gabo Island
Date/Time
EDT
Temp
°C
App
Temp
°C
Dew
Point
°C
Rel
Hum
%
Delta-T
°C
Wind Press
QNH
hPa
Press
MSL
hPa
Rain since
9am
mm
Dir  Spd
km/h
Gust
km/h
Spd
kts
Gust
kts
23/10:49am 18.4 10.8 15.7 84 1.6 SW 50 63 27 34 996.7 996.6 0.0
23/10:30am 18.6 13.5 15.9 84 1.6 SW 37 46 20 25 996.6 996.5 0.0
23/10:00am 18.5 12.6 15.8 84 1.6 SW 41 48 22 26 996.4 996.3 0.0
23/09:30am 18.9 13.3 16.6 86 1.4 SSW 41 50 22 27 996.6 996.5 0.0
23/09:16am 19.8 16.3 16.5 81 2.0 SSW 30 52 16 28 996.2 996.1 0.0
23/09:00am 23.4 19.6 16.6 65 4.2 N 32 54 17 29 995.7 995.6 0.0
23/08:58am 23.0 17.9 16.8 68 3.8 NNE 39 54 21 29 995.5 995.4 0.0
23/08:30am 22.6 16.7 17.1 71 3.4 NNE 44 52 24 28 994.6 994.5 0.0
23/08:00am 22.1 15.9 17.3 74 3.0 NE 46 54 25 29 994.7 994.6 0.0
23/07:30am 21.9 16.2 17.6 76 2.7 NNE 44 50 24 27 994.7 994.6 0.0
23/07:00am 21.8 15.8 17.8 78 2.5 NE 46 52 25 28 994.6 994.5 0.0
23/06:30am 21.8 16.5 18.1 79 2.3 NNE 43 50 23 27 994.8 994.7 0.0
23/06:00am 21.5 16.3 18.8 84 1.7 NNE 44 48 24 26 995.0 994.9 0.0
23/05:30am 21.4 16.4 19.2 87 1.4 NNE 44 50 24 27 995.3 995.2 0.0
23/05:00am 21.5 16.5 19.3 87 1.4 NNE 44 50 24 27 995.4 995.3 0.0
23/04:30am 21.4 16.7 19.4 88 1.3 NNE 43 46 23 25 996.0 995.9 0.0
23/04:00am 21.5 17.6 19.5 88 1.3 NNE 39 46 21 25 996.8 996.7 0.0
23/03:30am 22.2 18.3 19.6 85 1.7 NNE 39 48 21 26 997.1 997.0 0.0
23/03:00am 22.0 18.7 20.0 88 1.3 NNE 37 43 20 23 997.8 997.7 0.0
23/02:30am 21.8 17.9 20.3 91 1.0 NNE 41 48 22 26 998.6 998.5 0.0
23/02:00am 22.4 17.8 20.9 91 1.0 NNE 46 54 25 29 999.2 999.1 0.0
23/01:30am 22.6 17.4 21.1 91 1.0 NNE 50 57 27 31 999.5 999.4 0.0
23/01:00am 22.5 16.5 21.1 92 0.9 NE 54 67 29 36 999.9 999.8 0.0
23/12:30am 22.7 16.8 21.2 91 1.0 NNE 54 61 29 33 1000.2 1000.1 0.0
23/12:00am 23.1 17.1 21.1 88 1.3 NNE 54 65 29 35 1000.7 1000.6 0.0
 
Date/Time
EDT
Temp
°C
App
Temp
°C
Dew
Point
°C
Rel
Hum
%
Delta-T
°C
Wind Press
QNH
hPa
Press
MSL
hPa
Rain since
9am
mm
Dir  Spd
km/h
Gust
km/h
Spd
kts
Gust
kts
22/11:30pm 23.3 17.2 20.9 86 1.6 NNE 54 69 29 37 1001.1 1001.0 0.0
22/11:00pm 23.4 16.9 20.8 85 1.7 NNE 56 72 30 39 1001.5 1001.4 0.0
22/10:56pm 23.4 17.3 21.0 86 1.6 NNE 54 72 29 39 1001.4 1001.3 0.0
22/10:30pm 23.3 16.7 21.0 87 1.5 NNE 57 67 31 36 1001.6 1001.5 0.0
22/10:00pm 23.5 17.6 20.6 84 1.9 NNE 52 65 28 35 1001.9 1001.8 0.0
22/09:30pm 23.8 19.1 20.7 83 2.0 NNE 46 61 25 33 1002.1 1002.0 0.0
22/09:00pm 23.9 18.7 20.4 81 2.3 NNE 48 61 26 33 1002.0 1001.9 0.0
22/08:30pm 24.1 19.0 19.8 77 2.8 NNE 46 59 25 32 1001.6 1001.5 0.0
22/08:00pm 24.8 19.7 19.0 70 3.7 NNE 44 52 24 28 1001.7 1001.6 0.0
22/07:30pm 25.4 18.8 19.0 67 4.1 NNE 52 65 28 35 1001.0 1000.9 0.0
22/07:00pm 25.8 20.1 18.6 64 4.6 NNE 46 57 25 31 1000.6 1000.5 0.0
22/06:30pm 25.3 18.3 19.8 71 3.6 NNE 56 74 30 40 1000.3 1000.2 0.0
22/06:03pm 25.6 17.4 19.4 68 4.0 NNE 61 80 33 43 1000.1 1000.0 0.0
22/06:00pm 25.8 17.2 19.3 67 4.2 NNE 63 80 34 43 1000.0 999.9 0.0
22/05:49pm 25.6 18.2 19.4 68 4.0 NNE 57 80 31 43 1000.2 1000.1 0.0
22/05:30pm 25.0 17.3 19.6 72 3.5 NNE 59 70 32 38 1000.6 1000.5 0.0
22/05:00pm 25.3 18.1 19.9 72 3.5 NNE 57 69 31 37 1000.9 1000.8 0.0
22/04:48pm 25.8 19.2 19.8 69 3.9 NNE 54 72 29 39 1001.4 1001.3 0.0
22/04:30pm 25.8 19.5 19.8 69 3.9 NNE 52 67 28 36 1001.7 1001.6 0.0
22/04:00pm 25.9 19.8 19.4 67 4.2 NNE 50 61 27 33 1002.3 1002.2 0.0
22/03:30pm 25.9 19.9 18.7 64 4.6 NNE 48 56 26 30 1002.8 1002.7 0.0
22/03:00pm 26.1 20.4 17.7 60 5.3 NE 44 52 24 28 1003.6 1003.5 0.0
22/02:30pm 26.2 20.3 17.1 57 5.7 NNE 44 52 24 28 1004.5 1004.4 0.0
22/02:00pm 25.6 21.0 18.9 66 4.3 NE 41 48 22 26 1005.1 1005.1 0.0
22/01:30pm 25.4 22.6 18.3 65 4.5 NE 30 35 16 19 1005.8 1005.8 0.0
22/01:00pm 24.9 22.1 19.1 70 3.7 NE 32 35 17 19 1006.2 1006.2 0.0
22/12:30pm 24.6 21.6 19.1 71 3.5 NE 33 37 18 20 1006.7 1006.7 0.0
22/12:00pm 24.7 21.8 18.9 70 3.7 NE 32 35 17 19 1007.0 1007.0 0.0
22/11:30am 24.3 21.8 18.8 71 3.5 NE 30 33 16 18 1007.5 1007.5 0.0
22/11:00am 23.4 22.0 18.7 75 3.0 NE 24 30 13 16 1007.7 1007.7 0.0
22/10:30am 24.0 22.9 18.6 72 3.4 NE 22 26 12 14 1008.1 1008.1 0.0
22/10:00am 23.0 21.1 18.6 76 2.8 NE 26 30 14 16 1008.2 1008.2 0.0
22/09:30am 22.1 20.4 18.1 78 2.5 NE 24 32 13 17 1008.4 1008.4 0.0
22/09:00am 21.8 19.6 17.8 78 2.5 NE 26 30 14 16 1008.6 1008.6 0.0
22/08:30am 22.6 21.0 17.4 72 3.2 NNE 22 28 12 15 1009.0 1009.0 0.0
22/08:00am 20.9 19.1 17.8 82 1.9 NNE 24 26 13 14 1008.8 1008.8 0.0
22/07:30am 20.3 19.3 17.5 84 1.7 NNE 19 22 10 12 1009.1 1009.1 0.0
22/07:00am 19.6 18.2 17.1 85 1.5 NNE 20 26 11 14 1009.0 1009.0 0.0
22/06:30am 19.0 17.7 16.9 88 1.3 N 19 22 10 12 1008.7 1008.7 0.0
22/06:00am 17.8 17.7 15.9 89 1.1 N 11 15 6 8 1008.6 1008.6 0.0
22/05:30am 18.6 17.5 16.4 87 1.3 NNE 17 20 9 11 1008.5 1008.5 0.0
22/05:00am 18.6 16.9 16.3 86 1.4 NNE 20 26 11 14 1008.2 1008.2 0.0
22/04:30am 18.6 16.5 16.3 86 1.4 NNE 22 28 12 15 1008.1 1008.1 0.0
22/04:00am 18.4 16.6 15.5 83 1.7 NNE 19 20 10 11 1008.5 1008.5 0.0
22/03:30am 17.9 17.1 15.0 83 1.7 NNE 13 15 7 8 1008.8 1008.8 0.0
22/03:00am 17.8 16.4 14.5 81 1.9 NNE 15 19 8 10 1009.1 1009.1 0.0
22/02:30am 17.8 16.2 14.0 78 2.2 NNE 15 17 8 9 1009.5 1009.5 0.0
22/02:00am 17.9 16.7 13.9 77 2.3 NNE 13 15 7 8 1009.7 1009.7 0.0
22/01:30am 17.2 16.3 13.7 80 2.0 NNE 11 13 6 7 1010.0 1010.0 0.0
22/01:00am 18.1 17.6 13.9 76 2.4 NNE 9 11 5 6 1010.1 1010.1 0.0
22/12:30am 18.1 17.7 14.1 77 2.3 NNE 9 11 5 6 1010.5 1010.5 0.0
22/12:00am 17.9 17.5 14.1 78 2.2 N 9 11 5 6 1010.8 1010.8 0.0
 
Date/Time
EDT
Temp
°C
App
Temp
°C
Dew
Point
°C
Rel
Hum
%
Delta-T
°C
Wind Press
QNH
hPa
Press
MSL
hPa
Rain since
9am
mm
Dir  Spd
km/h
Gust
km/h
Spd
kts
Gust
kts
21/11:30pm 17.9 17.4 13.9 77 2.3 N 9 11 5 6 1010.8 1010.8 0.0
21/11:00pm 18.3 19.1 13.6 74 2.7 W 2 7 1 4 1010.8 1010.8 0.0
21/10:30pm 18.5 18.2 13.4 72 2.9 SW 7 11 4 6 1010.8 1010.8 0.0
21/10:00pm 18.6 17.1 13.1 70 3.1 SSW 13 15 7 8 1010.7 1010.7 0.0
21/09:30pm 18.7 16.9 13.4 71 3.0 SW 15 19 8 10 1010.5 1010.5 0.0
21/09:00pm 18.8 16.2 13.1 69 3.2 SW 19 22 10 12 1010.2 1010.2 0.0
21/08:30pm 18.7 16.0 13.4 71 3.0 SSW 20 24 11 13 1009.6 1009.6 0.0
21/08:00pm 18.9 16.1 13.3 70 3.2 SSW 20 28 11 15 1009.5 1009.5 0.0
21/07:30pm 19.1 15.8 14.1 73 2.9 SSW 24 32 13 17 1008.8 1008.8 0.0
21/07:00pm 18.9 14.9 13.1 69 3.3 SW 26 32 14 17 1008.5 1008.5 0.0
21/06:30pm 19.2 13.9 13.2 68 3.4 SSW 33 41 18 22 1007.7 1007.7 0.0
21/06:00pm 19.9 14.2 14.2 69 3.3 SSW 37 43 20 23 1006.8 1006.8 0.0
21/05:30pm 20.1 14.8 14.1 68 3.5 SSW 35 43 19 23 1007.0 1007.0 0.0
21/05:00pm 20.2 14.4 14.0 67 3.6 SSW 37 43 20 23 1007.0 1007.0 0.0
21/04:30pm 19.6 13.4 13.7 68 3.4 SSW 39 44 21 24 1007.1 1007.1 0.0
21/04:00pm 19.6 12.9 13.3 67 3.6 SSW 41 46 22 25 1007.2 1007.2 0.0
21/03:30pm 19.7 13.2 14.0 69 3.3 SSW 41 48 22 26 1007.5 1007.5 0.0
21/03:00pm 19.1 11.6 13.9 72 3.0 SSW 46 52 25 28 1007.5 1007.5 0.0
21/02:30pm 19.3 11.8 13.9 71 3.1 SSW 46 54 25 29 1007.7 1007.7 0.0
21/02:00pm 19.6 12.7 13.9 69 3.3 SW 43 48 23 26 1007.9 1007.9 0.0
21/01:30pm 19.8 14.1 15.2 75 2.7 SW 39 44 21 24 1008.0 1008.0 0.0
21/01:00pm 19.9 14.5 15.0 73 2.9 SW 37 43 20 23 1008.0 1008.0 0.0
21/12:30pm 19.6 13.6 14.4 72 3.0 WSW 39 48 21 26 1007.9 1007.9 0.0
21/12:00pm 19.3 12.4 14.5 74 2.8 WSW 44 54 24 29 1007.7 1007.7 0.0
21/11:30am 18.2 11.2 15.3 83 1.7 WSW 46 57 25 31 1007.3 1007.3 0.0
21/11:00am 18.6 11.7 15.6 83 1.8 WSW 46 56 25 30 1007.0 1007.0 0.0
21/10:30am 18.6 11.3 15.6 83 1.8 WSW 48 61 26 33 1006.4 1006.4 0.0
21/10:00am 18.7 11.1 15.7 83 1.8 WSW 50 65 27 35 1006.2 1006.2 0.0
21/09:30am 18.9 12.1 15.9 83 1.8 WSW 46 57 25 31 1005.9 1005.9 0.0
21/09:00am 18.5 11.8 16.2 86 1.4 WSW 46 59 25 32 1005.4 1005.4 9.0
21/08:30am 17.7 11.3 16.0 90 1.0 WSW 44 57 24 31 1005.0 1005.0 9.0
21/08:00am 17.4 12.5 16.4 94 0.6 W 37 46 20 25 1004.7 1004.6 9.0
21/07:30am 17.8 13.1 15.9 89 1.1 WSW 35 46 19 25 1004.2 1004.1 9.0
21/07:00am 17.0 13.5 15.5 91 0.9 W 28 33 15 18 1003.8 1003.7 9.0
21/06:30am 17.0 13.8 15.3 90 1.0 W 26 32 14 17 1003.6 1003.5 8.4
21/06:00am 17.0 12.9 14.8 87 1.3 W 30 37 16 20 1002.9 1002.8 8.4
21/05:30am 17.1 13.8 14.9 87 1.3 W 26 35 14 19 1002.6 1002.5 8.4
21/05:00am 17.2 13.5 15.1 87 1.2 WSW 28 35 15 19 1002.2 1002.1 8.4
21/04:30am 17.4 13.7 15.0 86 1.4 W 28 35 15 19 1002.0 1001.9 8.4
21/04:00am 17.3 14.9 15.3 88 1.2 W 22 32 12 17 1001.6 1001.5 8.4
21/03:30am 17.4 12.9 15.5 89 1.1 WSW 33 43 18 23 1001.2 1001.1 8.4
21/03:00am 17.7 12.6 15.7 88 1.2 WSW 37 43 20 23 1001.3 1001.2 8.4
21/02:30am 17.9 13.6 15.9 88 1.2 WSW 33 41 18 22 1001.6 1001.5 8.4
21/02:00am 18.1 15.3 16.4 90 1.0 WSW 26 33 14 18 1001.8 1001.7 8.2
21/01:30am 17.7 18.0 16.0 90 1.0 NW 9 11 5 6 1002.1 1002.0 8.2
21/01:00am 17.8 18.1 15.9 89 1.1 WNW 9 13 5 7 1002.2 1002.1 8.2
21/12:30am 17.4 16.8 15.7 90 1.0 NW 13 15 7 8 1002.2 1002.1 8.2
21/12:00am 17.3 17.8 15.6 90 1.0 W 7 9 4 5 1002.5 1002.4 8.2
 
Date/Time
EDT
Temp
°C
App
Temp
°C
Dew
Point
°C
Rel
Hum
%
Delta-T
°C
Wind Press
QNH
hPa
Press
MSL
hPa
Rain since
9am
mm
Dir  Spd
km/h
Gust
km/h
Spd
kts
Gust
kts
20/11:30pm 17.2 17.7 15.5 90 1.0 WSW 7 11 4 6 1002.3 1002.2 8.2
20/11:00pm 17.4 18.0 15.4 88 1.2 N 6 9 3 5 1002.1 1002.0 8.2
20/10:30pm 17.7 17.8 15.5 87 1.3 WNW 9 13 5 7 1002.1 1002.0 8.2
20/10:00pm 17.7 17.3 15.1 85 1.5 WNW 11 13 6 7 1002.2 1002.1 8.2
20/09:30pm 17.6 17.9 16.1 91 0.9 NW 9 13 5 7 1003.0 1002.9 8.2
20/09:00pm 17.8 18.1 15.9 89 1.1 W 9 11 5 6 1001.9 1001.8 8.2
20/08:30pm 18.5 18.5 16.3 87 1.3 WNW 11 15 6 8 1001.7 1001.6 8.2
20/08:00pm 18.7 17.9 16.2 85 1.5 WNW 15 17 8 9 1001.4 1001.3 8.2
20/07:30pm 19.1 18.4 16.3 84 1.7 W 15 19 8 10 1001.1 1001.0 8.2
20/07:00pm 19.2 16.8 15.5 79 2.2 SW 22 26 12 14 1000.3 1000.2 8.2
20/06:30pm 19.1 17.5 16.4 84 1.6 SW 20 26 11 14 1000.2 1000.1 8.2
20/06:00pm 19.6 18.5 16.3 81 2.0 WSW 17 20 9 11 1000.4 1000.3 8.2
20/05:30pm 19.0 19.2 16.7 86 1.4 W 11 15 6 8 1000.6 1000.5 8.2
20/05:00pm 18.8 18.7 17.0 89 1.1 SW 13 17 7 9 1001.5 1001.4 8.2
20/04:30pm 17.9 16.9 16.6 92 0.8 SW 17 20 9 11 1001.3 1001.2 8.2
20/04:27pm 17.9 16.9 16.6 92 0.8 SW 17 20 9 11 1001.2 1001.1 8.2
20/04:00pm 17.0 15.8 16.0 94 0.6 NW 17 22 9 12 1003.2 1003.1 7.8
20/03:30pm 17.2 15.0 16.0 93 0.7 W 22 28 12 15 1002.9 1002.8 6.2
20/03:00pm 17.3 13.6 16.0 92 0.8 NW 30 46 16 25 1003.5 1003.4 3.0
20/02:50pm 18.7 16.2 15.1 79 2.1 WNW 22 48 12 26 1002.9 1002.8 0.2
20/02:30pm 21.6 22.9 18.4 82 2.0 S 9 11 5 6 1002.1 1002.0 0.0
20/02:00pm 23.1 23.5 18.9 77 2.7 S 15 20 8 11 1000.5 1000.4 0.0
20/01:30pm 24.0 23.2 19.2 74 3.1 S 22 28 12 15 1000.8 1000.7 0.0
20/01:00pm 23.6 23.8 19.4 77 2.7 S 17 20 9 11 1001.5 1001.4 0.0
20/12:30pm 23.4 21.5 19.3 78 2.6 S 28 32 15 17 1001.6 1001.5 0.0
20/12:00pm 21.7 20.9 19.2 86 1.6 SSW 22 28 12 15 1002.3 1002.2 0.0
20/11:30am 22.1 22.0 18.8 81 2.1 SSW 17 20 9 11 1002.4 1002.3 0.0
20/11:00am 21.5 22.1 18.6 83 1.8 SSW 13 15 7 8 1002.6 1002.5 0.0

Other formats

Comma delimited format used in spreadsheet applications
http://www.bom.gov.au/fwo/IDV60801/IDV60801.94933.axf

JavaScript Object Notation format (JSON) in row-major order
http://www.bom.gov.au/fwo/IDV60801/IDV60801.94933.json

Data quality

Most of these data are generated automatically and are frequently updated. Quality checks on data are not normally performed. It is possible for incorrect values to appear. Refer to information at About Latest Weather Observations and please check the disclaimer before using these data.